KTVL/TVL METAR and TAF weather

Enter ICAO airport designator
Station Type Date Time Source
KTVL METAR 2020/06/06 19:53 UTC NOAA

KTVL 061953Z AUTO 19014G29KT 10SM FEW055 13/M02 A2992 RMK AO2 PK WND 19029/1949 SLP086 T01281017


Station Type Date Time Source
KTVL Decoded METAR 2020/06/06 19:53 UTC NOAA

SOUTH LAKE TAHOE AIRPORT, CA, United States (KTVL) 38-53N 119-59W 1925M
Jun 06, 2020 - 03:53 PM EDT / 2020.06.06 1953 UTC
Wind: from the S (190 degrees) at 16 MPH (14 KT) gusting to 33 MPH (29 KT):0
Visibility: 10 mile(s):0
Sky conditions: mostly clear
Temperature: 55.0 F (12.8 C)
Dew Point: 28.9 F (-1.7 C)
Relative Humidity: 36%
Pressure (altimeter): 29.92 in. Hg (1013 hPa)
ob: KTVL 061953Z AUTO 19014G29KT 10SM FEW055 13/M02 A2992 RMK AO2 PK WND 19029/1949 SLP086 T01281017
cycle: 20

Station Type Date Time Source
KTVL TAF 2020/06/06 18:24 UTC NOAA

TAF KTVL 061723Z 0618/0718 19015G25KT P6SM FEW200
FM062000 20020G32KT P6SM FEW200 WS015/25035KT
FM070300 19015G28KT P6SM SCT030 BKN100 WS015/26045KT
FM071000 19010KT P6SM SCT030 SCT100

Example: see airport list